Time;durP1;ratioP1;P1;durP2;ratioP2;P2;SDS_P1;SDS_P2;PMS_P1;PMS_P2;Temp;Humidity;BMP_temperature;BMP_pressure;BME280_temperature;BME280_humidity;BME280_pressure;Samples;Min_cycle;Max_cycle;Signal;HPM_P1;HPM_P2
2023/09/10 00:00:40;;;;;;;;;;;21.90;57.20;;;;;;5032555;28;19964;-66
2023/09/10 00:03:05;;;;;;;;;;;21.90;57.10;;;;;;5031339;28;20000;-67
2023/09/10 00:05:31;;;;;;;;;;;21.90;57.10;;;;;;5032576;28;19913;-69
2023/09/10 00:07:57;;;;;;;;;;;21.90;57.10;;;;;;5032557;28;19913;-67
2023/09/10 00:10:23;;;;;;;;;;;21.80;57.00;;;;;;5032353;28;20308;-67
2023/09/10 00:12:48;;;;;;;;;;;21.80;57.00;;;;;;5032079;28;20356;-67
2023/09/10 00:15:13;;;;;;;;;;;21.80;57.00;;;;;;5032228;28;20385;-67
2023/09/10 00:17:39;;;;;;;;;;;21.80;57.00;;;;;;5032399;28;19917;-68
2023/09/10 00:20:06;;;;;;;;;;;21.80;57.00;;;;;;5032648;28;19919;-68
2023/09/10 00:22:32;;;;;;;;;;;21.80;57.00;;;;;;5032686;28;19913;-68
2023/09/10 00:24:57;;;;;;;;;;;21.80;57.10;;;;;;5032484;28;19913;-68
2023/09/10 00:27:23;;;;;;;;;;;21.70;57.00;;;;;;5031972;28;19917;-68
2023/09/10 00:29:48;;;;;;;;;;;21.70;57.10;;;;;;5032267;28;19954;-67
2023/09/10 00:32:13;;;;;;;;;;;21.70;57.20;;;;;;5032020;28;20341;-66
2023/09/10 00:34:39;;;;;;;;;;;21.60;57.20;;;;;;5032335;28;19925;-67
2023/09/10 00:37:04;;;;;;;;;;;21.60;57.30;;;;;;5031940;28;19913;-67
2023/09/10 00:39:30;;;;;;;;;;;21.50;57.20;;;;;;5032712;28;19967;-68
2023/09/10 00:41:55;;;;;;;;;;;21.50;57.30;;;;;;5031745;28;19921;-67
2023/09/10 00:44:23;;;;;;;;;;;21.50;57.50;;;;;;5031922;28;19920;-67
2023/09/10 00:46:49;;;;;;;;;;;21.40;57.60;;;;;;5031738;28;19913;-68
2023/09/10 00:49:15;;;;;;;;;;;21.40;57.70;;;;;;5031619;28;19913;-67
2023/09/10 00:51:40;;;;;;;;;;;21.40;57.90;;;;;;5031279;28;20427;-68
2023/09/10 00:54:06;;;;;;;;;;;21.30;58.10;;;;;;5031588;28;19917;-68
2023/09/10 00:56:31;;;;;;;;;;;21.30;58.20;;;;;;5031448;28;19919;-67
2023/09/10 00:58:57;;;;;;;;;;;21.30;58.30;;;;;;5031474;28;20019;-68
2023/09/10 01:01:22;;;;;;;;;;;21.20;58.20;;;;;;5031447;28;19917;-67
2023/09/10 01:03:48;;;;;;;;;;;21.20;58.10;;;;;;5031433;28;20364;-67
2023/09/10 01:06:14;;;;;;;;;;;21.20;58.00;;;;;;5031234;28;19913;-67
2023/09/10 01:08:39;;;;;;;;;;;21.20;58.00;;;;;;5031493;28;19913;-69
2023/09/10 01:11:19;;;;;;;;;;;21.10;58.20;;;;;;5031460;28;20369;-67
2023/09/10 01:14:03;;;;;;;;;;;21.10;58.20;;;;;;5031260;28;20438;-67
2023/09/10 01:16:33;;;;;;;;;;;21.10;58.40;;;;;;5031017;28;19924;-67
2023/09/10 01:19:03;;;;;;;;;;;21.10;58.50;;;;;;5031125;28;19917;-68
2023/09/10 01:21:39;;;;;;;;;;;21.10;58.50;;;;;;5031009;28;20025;-67
2023/09/10 01:24:12;;;;;;;;;;;21.00;58.50;;;;;;5029805;28;19917;-68
2023/09/10 01:26:37;;;;;;;;;;;21.00;58.60;;;;;;5031143;28;20281;-67
2023/09/10 01:29:04;;;;;;;;;;;21.00;58.70;;;;;;5031047;28;19917;-68
2023/09/10 01:31:31;;;;;;;;;;;21.00;58.80;;;;;;5030870;28;19917;-67
2023/09/10 01:34:01;;;;;;;;;;;21.00;58.80;;;;;;5031033;28;19999;-67
2023/09/10 01:36:41;;;;;;;;;;;20.90;58.90;;;;;;5030609;28;19924;-68
2023/09/10 01:39:18;;;;;;;;;;;20.90;59.10;;;;;;5030777;28;20308;-67
2023/09/10 01:41:45;;;;;;;;;;;20.80;59.20;;;;;;5030760;28;20406;-70
2023/09/10 01:44:11;;;;;;;;;;;20.80;59.30;;;;;;5031036;28;20399;-67
2023/09/10 01:46:36;;;;;;;;;;;20.80;59.40;;;;;;5030438;28;19917;-67
2023/09/10 01:49:02;;;;;;;;;;;20.80;59.50;;;;;;5030293;28;19920;-67
2023/09/10 01:51:27;;;;;;;;;;;20.70;59.40;;;;;;5030403;28;19967;-68
2023/09/10 01:53:53;;;;;;;;;;;20.70;59.40;;;;;;5030264;28;20366;-68
2023/09/10 01:56:20;;;;;;;;;;;20.60;59.60;;;;;;5030595;28;19909;-68
2023/09/10 01:58:46;;;;;;;;;;;20.60;59.70;;;;;;5030811;28;19924;-68
2023/09/10 02:01:11;;;;;;;;;;;20.50;59.80;;;;;;5030830;28;20427;-68
2023/09/10 02:03:37;;;;;;;;;;;20.60;59.80;;;;;;5030418;28;19917;-68
2023/09/10 02:06:03;;;;;;;;;;;20.50;59.80;;;;;;5030131;28;19920;-68
2023/09/10 02:08:29;;;;;;;;;;;20.40;59.80;;;;;;5030139;28;19983;-69
2023/09/10 02:10:54;;;;;;;;;;;20.50;59.80;;;;;;5030339;28;20000;-68
2023/09/10 02:13:20;;;;;;;;;;;20.40;59.90;;;;;;5030101;28;19917;-68
2023/09/10 02:15:45;;;;;;;;;;;20.40;59.90;;;;;;5030372;28;19913;-68
2023/09/10 02:18:11;;;;;;;;;;;20.40;60.10;;;;;;5030318;28;19929;-68
2023/09/10 02:20:36;;;;;;;;;;;20.40;60.10;;;;;;5030260;28;19913;-68
2023/09/10 02:23:02;;;;;;;;;;;20.30;60.10;;;;;;5030099;28;20369;-68
2023/09/10 02:25:28;;;;;;;;;;;20.30;60.20;;;;;;5030613;28;19909;-68
2023/09/10 02:27:53;;;;;;;;;;;20.30;60.20;;;;;;5036370;28;20276;-67
2023/09/10 02:30:19;;;;;;;;;;;20.30;60.30;;;;;;5036803;28;19909;-69
2023/09/10 02:32:45;;;;;;;;;;;20.20;60.50;;;;;;5036703;28;19917;-67
2023/09/10 02:35:10;;;;;;;;;;;20.20;60.70;;;;;;5036637;28;20432;-68
2023/09/10 02:37:35;;;;;;;;;;;20.20;60.70;;;;;;5036555;28;20305;-68
2023/09/10 02:40:01;;;;;;;;;;;20.10;60.70;;;;;;5036535;28;19960;-68
2023/09/10 02:42:26;;;;;;;;;;;20.10;60.60;;;;;;5036556;28;19928;-67
2023/09/10 02:44:52;;;;;;;;;;;20.10;60.70;;;;;;5036371;28;19976;-70
2023/09/10 02:47:17;;;;;;;;;;;20.00;60.70;;;;;;5036810;28;19917;-68
2023/09/10 02:49:43;;;;;;;;;;;20.00;60.80;;;;;;5036562;28;19987;-68
2023/09/10 02:52:08;;;;;;;;;;;20.00;60.90;;;;;;5036432;28;19924;-68
2023/09/10 02:54:35;;;;;;;;;;;20.00;60.90;;;;;;5035052;28;20361;-67
2023/09/10 02:57:00;;;;;;;;;;;19.90;60.90;;;;;;5036729;28;19917;-67
2023/09/10 02:59:26;;;;;;;;;;;19.90;61.00;;;;;;5036199;28;20327;-67
2023/09/10 03:01:52;;;;;;;;;;;19.90;61.20;;;;;;5024597;28;19925;-67
2023/09/10 03:04:18;;;;;;;;;;;19.90;61.30;;;;;;5016721;28;19913;-69
2023/09/10 03:06:44;;;;;;;;;;;19.80;61.40;;;;;;5016884;28;19920;-68
2023/09/10 03:09:10;;;;;;;;;;;19.80;61.50;;;;;;5016646;28;19989;-65
2023/09/10 03:11:37;;;;;;;;;;;19.80;61.50;;;;;;5016988;28;20344;-69
2023/09/10 03:14:03;;;;;;;;;;;19.80;61.50;;;;;;5016784;28;19917;-74
2023/09/10 03:16:29;;;;;;;;;;;19.80;61.60;;;;;;5016550;28;19925;-63
2023/09/10 03:18:54;;;;;;;;;;;19.80;61.60;;;;;;5016404;28;19971;-70
2023/09/10 03:21:20;;;;;;;;;;;19.80;61.50;;;;;;5016643;28;19918;-68
2023/09/10 03:23:45;;;;;;;;;;;19.80;61.60;;;;;;5016337;28;19913;-68
2023/09/10 03:26:11;;;;;;;;;;;19.80;61.70;;;;;;5016400;28;20000;-67
2023/09/10 03:28:37;;;;;;;;;;;19.80;61.90;;;;;;5016830;28;19914;-73
2023/09/10 03:31:03;;;;;;;;;;;19.80;62.00;;;;;;5017098;28;19939;-75
2023/09/10 03:33:28;;;;;;;;;;;19.80;61.90;;;;;;5017224;28;20285;-64
2023/09/10 03:35:53;;;;;;;;;;;19.70;62.00;;;;;;5025860;28;20004;-66
2023/09/10 03:38:19;;;;;;;;;;;19.70;62.00;;;;;;5031093;28;19925;-63
2023/09/10 03:40:44;;;;;;;;;;;19.70;62.00;;;;;;5036764;28;19913;-68
2023/09/10 03:43:10;;;;;;;;;;;19.70;62.10;;;;;;5036326;28;20533;-69
2023/09/10 03:45:35;;;;;;;;;;;19.60;62.00;;;;;;5033958;28;19923;-69
2023/09/10 03:48:01;;;;;;;;;;;19.60;62.00;;;;;;5034648;28;19924;-74
2023/09/10 03:50:26;;;;;;;;;;;19.50;62.10;;;;;;5033137;28;19920;-65
2023/09/10 03:52:52;;;;;;;;;;;19.50;62.30;;;;;;5032727;28;19972;-69
2023/09/10 03:55:17;;;;;;;;;;;19.50;62.60;;;;;;5032694;28;19959;-73
2023/09/10 03:57:43;;;;;;;;;;;19.50;62.50;;;;;;5032336;28;20296;-66
2023/09/10 04:00:08;;;;;;;;;;;19.40;62.50;;;;;;5032639;28;19964;-74
2023/09/10 04:02:34;;;;;;;;;;;19.40;62.50;;;;;;5033022;28;19924;-71
2023/09/10 04:05:00;;;;;;;;;;;19.40;62.60;;;;;;5033319;28;19967;-74
2023/09/10 04:07:25;;;;;;;;;;;19.40;62.60;;;;;;5035506;28;20293;-70
2023/09/10 04:09:52;;;;;;;;;;;19.30;62.60;;;;;;5031478;28;19936;-78
2023/09/10 04:12:17;;;;;;;;;;;19.30;62.60;;;;;;5033047;28;20356;-70
2023/09/10 04:14:43;;;;;;;;;;;19.40;62.60;;;;;;5033007;28;20046;-68
2023/09/10 04:17:08;;;;;;;;;;;19.40;62.60;;;;;;5033027;28;19946;-73
2023/09/10 04:19:34;;;;;;;;;;;19.30;62.70;;;;;;5033669;28;19988;-71
2023/09/10 04:21:59;;;;;;;;;;;19.40;62.70;;;;;;5036029;28;19956;-65
2023/09/10 04:24:25;;;;;;;;;;;19.30;62.70;;;;;;5032632;28;19924;-71
2023/09/10 04:26:50;;;;;;;;;;;19.30;62.60;;;;;;5032191;28;20311;-67
2023/09/10 04:29:16;;;;;;;;;;;19.30;62.70;;;;;;5031989;28;19979;-67
2023/09/10 04:31:42;;;;;;;;;;;19.30;62.70;;;;;;5028973;28;19920;-67
2023/09/10 04:34:08;;;;;;;;;;;19.20;62.80;;;;;;5021424;28;20056;-65
2023/09/10 04:36:33;;;;;;;;;;;19.20;62.90;;;;;;5017309;28;19997;-66
2023/09/10 04:38:59;;;;;;;;;;;19.20;62.90;;;;;;5014631;28;20292;-66
2023/09/10 04:41:24;;;;;;;;;;;19.20;63.00;;;;;;5011800;28;19913;-66
2023/09/10 04:43:50;;;;;;;;;;;19.10;63.00;;;;;;5011688;28;20373;-65
2023/09/10 04:46:15;;;;;;;;;;;19.10;63.00;;;;;;5026113;28;20254;-66
2023/09/10 04:48:40;;;;;;;;;;;19.10;63.10;;;;;;5031245;28;19971;-66
2023/09/10 04:51:07;;;;;;;;;;;19.10;63.00;;;;;;5031409;28;19921;-65
2023/09/10 04:53:32;;;;;;;;;;;19.10;63.00;;;;;;5031242;28;20032;-66
2023/09/10 04:55:59;;;;;;;;;;;19.00;63.10;;;;;;5031495;28;19975;-66
2023/09/10 04:58:24;;;;;;;;;;;19.00;63.10;;;;;;5031245;28;19924;-65
2023/09/10 05:00:50;;;;;;;;;;;19.10;63.20;;;;;;5031192;28;19913;-66
2023/09/10 05:03:16;;;;;;;;;;;19.10;63.20;;;;;;5031319;28;19917;-66
2023/09/10 05:05:41;;;;;;;;;;;19.10;63.30;;;;;;5031143;28;20317;-66
2023/09/10 05:08:07;;;;;;;;;;;19.10;63.30;;;;;;5031168;28;20355;-65
2023/09/10 05:10:32;;;;;;;;;;;19.20;63.40;;;;;;5030656;28;20345;-66
2023/09/10 05:12:58;;;;;;;;;;;19.20;63.50;;;;;;5030837;28;19913;-65
2023/09/10 05:15:23;;;;;;;;;;;19.30;63.60;;;;;;5030805;28;19952;-66
2023/09/10 05:17:48;;;;;;;;;;;19.30;63.70;;;;;;5030966;28;19964;-65
2023/09/10 05:20:14;;;;;;;;;;;19.40;63.90;;;;;;5031231;28;19913;-65
2023/09/10 05:22:39;;;;;;;;;;;19.50;64.10;;;;;;5030727;28;19917;-66
2023/09/10 05:25:05;;;;;;;;;;;19.60;64.20;;;;;;5030578;28;19956;-65
2023/09/10 05:27:31;;;;;;;;;;;19.70;64.30;;;;;;5030662;28;19963;-65
2023/09/10 05:29:57;;;;;;;;;;;19.80;64.40;;;;;;5030509;28;19909;-66
2023/09/10 05:32:22;;;;;;;;;;;19.90;64.50;;;;;;5031158;28;20004;-66
2023/09/10 05:34:48;;;;;;;;;;;20.00;64.70;;;;;;5030560;28;19909;-66
2023/09/10 05:37:13;;;;;;;;;;;20.20;64.80;;;;;;5030498;28;19914;-65
2023/09/10 05:39:38;;;;;;;;;;;20.30;65.00;;;;;;5028951;28;19962;-66
2023/09/10 05:42:04;;;;;;;;;;;20.50;65.20;;;;;;5030774;28;19913;-66
2023/09/10 05:44:29;;;;;;;;;;;20.70;65.30;;;;;;5030267;28;20050;-66
2023/09/10 05:46:55;;;;;;;;;;;21.00;65.50;;;;;;5030800;28;19914;-66
2023/09/10 05:49:20;;;;;;;;;;;21.20;65.60;;;;;;5029120;28;19913;-66
2023/09/10 05:51:46;;;;;;;;;;;21.40;65.70;;;;;;5030332;28;19929;-66
2023/09/10 05:54:11;;;;;;;;;;;21.70;65.80;;;;;;5030324;28;20004;-66
2023/09/10 05:56:36;;;;;;;;;;;21.90;65.80;;;;;;5030581;28;19963;-66
2023/09/10 05:59:02;;;;;;;;;;;22.20;65.90;;;;;;5030077;28;19928;-66
2023/09/10 06:01:27;;;;;;;;;;;22.40;65.90;;;;;;5029889;28;19914;-66
2023/09/10 06:03:53;;;;;;;;;;;22.70;66.00;;;;;;5030117;28;19917;-67
2023/09/10 06:06:18;;;;;;;;;;;23.00;66.10;;;;;;5030427;28;19913;-66
2023/09/10 06:08:44;;;;;;;;;;;23.20;66.10;;;;;;5030029;28;19921;-66
2023/09/10 06:11:09;;;;;;;;;;;23.50;66.00;;;;;;5030414;28;20356;-66
2023/09/10 06:13:35;;;;;;;;;;;23.70;66.00;;;;;;5028876;28;19968;-67
2023/09/10 06:16:00;;;;;;;;;;;24.00;66.00;;;;;;5030375;28;20228;-67
2023/09/10 06:18:26;;;;;;;;;;;24.30;66.00;;;;;;5030073;28;19960;-66
2023/09/10 06:20:51;;;;;;;;;;;24.60;66.20;;;;;;5029924;28;19917;-66
2023/09/10 06:23:17;;;;;;;;;;;24.90;66.20;;;;;;5029951;28;19917;-66
2023/09/10 06:25:42;;;;;;;;;;;25.20;65.80;;;;;;5029755;28;20384;-67
2023/09/10 06:28:08;;;;;;;;;;;25.50;65.90;;;;;;5029781;28;19957;-67
2023/09/10 06:30:33;;;;;;;;;;;25.80;65.80;;;;;;5030145;28;20066;-67
2023/09/10 06:32:58;;;;;;;;;;;26.20;65.60;;;;;;5029954;28;19914;-67
2023/09/10 06:35:25;;;;;;;;;;;26.50;65.20;;;;;;5029862;28;20035;-67
2023/09/10 06:37:50;;;;;;;;;;;26.80;64.60;;;;;;5029907;28;19996;-67
2023/09/10 06:40:16;;;;;;;;;;;27.10;64.10;;;;;;5030167;28;20010;-67
2023/09/10 06:42:41;;;;;;;;;;;27.40;63.60;;;;;;5030224;28;19913;-67
2023/09/10 06:45:07;;;;;;;;;;;27.70;63.30;;;;;;5030329;28;19913;-67
2023/09/10 06:47:32;;;;;;;;;;;28.10;62.90;;;;;;5029755;28;20341;-67
2023/09/10 06:49:58;;;;;;;;;;;28.40;62.00;;;;;;5029607;28;20358;-67
2023/09/10 06:52:23;;;;;;;;;;;28.80;61.10;;;;;;5028509;28;20288;-67
2023/09/10 06:54:49;;;;;;;;;;;29.10;59.70;;;;;;5029628;28;19949;-68
2023/09/10 06:57:15;;;;;;;;;;;29.40;59.10;;;;;;5029951;28;19917;-67
2023/09/10 06:59:40;;;;;;;;;;;29.80;59.00;;;;;;5029629;28;19919;-68
2023/09/10 07:02:06;;;;;;;;;;;30.10;58.60;;;;;;5029959;28;20428;-68
2023/09/10 07:04:31;;;;;;;;;;;30.50;57.70;;;;;;5029106;28;19948;-68
2023/09/10 07:06:57;;;;;;;;;;;30.90;57.00;;;;;;5030006;28;19913;-68
2023/09/10 07:09:23;;;;;;;;;;;31.30;56.60;;;;;;5029804;28;19913;-68
2023/09/10 07:11:51;;;;;;;;;;;31.80;56.20;;;;;;5030175;28;19920;-68
2023/09/10 07:14:17;;;;;;;;;;;32.20;55.30;;;;;;5033479;28;19924;-68
2023/09/10 07:16:43;;;;;;;;;;;32.60;53.60;;;;;;5034063;28;19924;-68
2023/09/10 07:19:08;;;;;;;;;;;32.90;52.90;;;;;;5033356;28;19917;-68
2023/09/10 07:21:34;;;;;;;;;;;33.30;51.70;;;;;;5033628;28;19921;-67
2023/09/10 07:23:59;;;;;;;;;;;33.80;51.10;;;;;;5033496;28;19913;-67
2023/09/10 07:26:25;;;;;;;;;;;34.20;49.60;;;;;;5033839;28;19919;-67
2023/09/10 07:28:50;;;;;;;;;;;34.50;48.00;;;;;;5033051;28;19917;-67
2023/09/10 07:31:16;;;;;;;;;;;34.80;46.80;;;;;;5033875;28;19917;-67
2023/09/10 07:33:41;;;;;;;;;;;35.20;46.10;;;;;;5033235;28;19963;-67
2023/09/10 07:36:07;;;;;;;;;;;35.50;45.20;;;;;;5031950;28;19991;-67
2023/09/10 07:38:32;;;;;;;;;;;35.90;44.70;;;;;;5033181;28;19939;-68
2023/09/10 07:40:58;;;;;;;;;;;36.30;44.20;;;;;;5033359;28;19913;-67
2023/09/10 07:43:23;;;;;;;;;;;36.70;43.60;;;;;;5033125;28;19913;-68
2023/09/10 07:45:49;;;;;;;;;;;37.10;43.00;;;;;;5033162;28;19924;-68
2023/09/10 07:48:15;;;;;;;;;;;37.50;41.70;;;;;;5033120;28;19921;-68
2023/09/10 07:50:41;;;;;;;;;;;37.80;41.20;;;;;;5032626;28;19924;-68
2023/09/10 07:53:07;;;;;;;;;;;38.10;39.70;;;;;;5032698;28;19963;-68
2023/09/10 07:55:34;;;;;;;;;;;38.30;39.20;;;;;;5032754;28;19971;-68
2023/09/10 07:57:59;;;;;;;;;;;38.60;38.20;;;;;;5032782;28;20137;-67
2023/09/10 08:00:25;;;;;;;;;;;38.70;37.60;;;;;;5032722;28;19917;-68
2023/09/10 08:02:50;;;;;;;;;;;39.10;37.40;;;;;;5032910;28;19964;-68
2023/09/10 08:05:16;;;;;;;;;;;39.30;36.50;;;;;;5033128;28;19924;-66
2023/09/10 08:07:41;;;;;;;;;;;39.60;36.10;;;;;;5031205;28;20430;-68
2023/09/10 08:10:07;;;;;;;;;;;39.80;35.10;;;;;;5032621;28;19919;-68
2023/09/10 08:12:33;;;;;;;;;;;39.90;34.50;;;;;;5032215;28;20353;-68
2023/09/10 08:14:58;;;;;;;;;;;40.10;34.10;;;;;;5031591;28;19916;-67
2023/09/10 08:17:24;;;;;;;;;;;40.20;33.60;;;;;;5032361;28;19913;-67
2023/09/10 08:19:49;;;;;;;;;;;40.30;33.10;;;;;;5032091;28;19913;-68
2023/09/10 08:22:15;;;;;;;;;;;40.40;32.70;;;;;;5032127;28;19993;-68
2023/09/10 08:24:41;;;;;;;;;;;40.50;32.50;;;;;;5031142;28;20266;-68
2023/09/10 08:27:11;;;;;;;;;;;40.70;32.40;;;;;;5032454;28;20335;-68
2023/09/10 08:29:36;;;;;;;;;;;40.90;32.10;;;;;;5031830;28;20360;-68
2023/09/10 08:32:02;;;;;;;;;;;41.20;32.00;;;;;;5031745;28;20019;-68
2023/09/10 08:34:27;;;;;;;;;;;41.50;31.90;;;;;;5032048;28;20343;-68
2023/09/10 08:36:53;;;;;;;;;;;41.80;31.50;;;;;;5032317;28;19913;-68
2023/09/10 08:39:18;;;;;;;;;;;42.20;31.20;;;;;;5031268;28;19986;-68
2023/09/10 08:41:58;;;;;;;;;;;42.40;30.60;;;;;;5031918;28;19920;-68
2023/09/10 08:44:24;;;;;;;;;;;42.70;30.30;;;;;;5031853;28;20439;-68
2023/09/10 08:46:51;;;;;;;;;;;42.90;29.70;;;;;;5031834;28;19917;-68
2023/09/10 08:49:17;;;;;;;;;;;43.20;29.30;;;;;;5031496;28;19921;-68
2023/09/10 08:51:43;;;;;;;;;;;43.30;29.00;;;;;;5029739;28;19924;-68
2023/09/10 08:54:09;;;;;;;;;;;43.50;28.60;;;;;;5031433;28;19913;-66
2023/09/10 08:56:35;;;;;;;;;;;43.50;28.00;;;;;;5031306;28;19936;-68
2023/09/10 08:59:00;;;;;;;;;;;43.60;27.70;;;;;;5031353;28;20388;-66
2023/09/10 09:01:26;;;;;;;;;;;43.60;26.70;;;;;;5031659;28;20078;-67
2023/09/10 09:03:52;;;;;;;;;;;43.50;26.70;;;;;;5030042;28;20233;-68
2023/09/10 09:06:18;;;;;;;;;;;43.60;26.40;;;;;;5031039;28;20375;-68
2023/09/10 09:08:47;;;;;;;;;;;43.60;26.60;;;;;;5030983;28;19956;-67
2023/09/10 09:11:13;;;;;;;;;;;43.70;26.50;;;;;;5031330;28;20356;-66
2023/09/10 09:13:42;;;;;;;;;;;43.80;26.40;;;;;;5029787;28;20380;-66
2023/09/10 09:16:08;;;;;;;;;;;43.90;26.20;;;;;;5030637;28;20315;-66
2023/09/10 09:18:36;;;;;;;;;;;44.10;26.40;;;;;;5031166;28;19982;-66
2023/09/10 09:21:05;;;;;;;;;;;44.20;26.00;;;;;;5031201;28;19924;-67
2023/09/10 09:23:32;;;;;;;;;;;44.10;26.00;;;;;;5031097;28;19920;-67
2023/09/10 09:25:58;;;;;;;;;;;44.20;26.20;;;;;;5030971;28;20437;-67
2023/09/10 09:28:27;;;;;;;;;;;44.30;26.30;;;;;;5030825;28;19999;-67
2023/09/10 09:30:53;;;;;;;;;;;44.50;25.90;;;;;;5030922;28;20353;-67
2023/09/10 09:33:18;;;;;;;;;;;44.60;25.70;;;;;;5030591;28;19987;-67
2023/09/10 09:35:44;;;;;;;;;;;44.60;25.50;;;;;;5030650;28;19921;-67
2023/09/10 09:38:10;;;;;;;;;;;44.60;25.70;;;;;;5030438;28;19967;-67
2023/09/10 09:40:36;;;;;;;;;;;44.80;25.80;;;;;;5029282;28;20403;-66
2023/09/10 09:43:02;;;;;;;;;;;44.90;25.80;;;;;;5030591;28;19917;-67
2023/09/10 09:45:27;;;;;;;;;;;45.00;25.30;;;;;;5030380;28;20378;-67
2023/09/10 09:47:53;;;;;;;;;;;45.00;25.20;;;;;;5030233;28;19917;-67
2023/09/10 09:50:21;;;;;;;;;;;44.90;25.20;;;;;;5030354;28;19954;-67
2023/09/10 09:52:54;;;;;;;;;;;45.00;25.30;;;;;;5030659;28;19925;-67
2023/09/10 09:55:19;;;;;;;;;;;45.10;25.10;;;;;;5030378;28;19967;-67
2023/09/10 09:57:47;;;;;;;;;;;45.10;25.20;;;;;;5029682;28;21383;-66
2023/09/10 10:00:13;;;;;;;;;;;45.30;25.40;;;;;;5030227;28;20004;-67
2023/09/10 10:02:38;;;;;;;;;;;45.40;25.40;;;;;;5030704;28;19927;-67
2023/09/10 10:05:04;;;;;;;;;;;45.50;24.80;;;;;;5030836;28;19963;-67
2023/09/10 10:07:30;;;;;;;;;;;45.50;24.70;;;;;;5030121;28;19913;-66
2023/09/10 10:09:58;;;;;;;;;;;45.30;24.40;;;;;;5030048;28;19952;-66
2023/09/10 10:12:23;;;;;;;;;;;45.10;24.30;;;;;;5030097;28;19913;-66
2023/09/10 10:14:50;;;;;;;;;;;44.90;24.50;;;;;;5029989;28;20383;-67
2023/09/10 10:17:16;;;;;;;;;;;44.60;24.50;;;;;;5029911;28;19955;-66
2023/09/10 10:19:41;;;;;;;;;;;44.30;24.70;;;;;;5029680;28;19956;-66
2023/09/10 10:22:08;;;;;;;;;;;44.20;25.10;;;;;;5030611;28;20187;-66
2023/09/10 10:24:34;;;;;;;;;;;44.20;25.10;;;;;;5029905;28;19960;-66
2023/09/10 10:27:00;;;;;;;;;;;44.20;25.30;;;;;;5030111;28;19956;-66
2023/09/10 10:29:26;;;;;;;;;;;44.20;25.50;;;;;;5029951;28;19920;-66
2023/09/10 10:31:56;;;;;;;;;;;44.40;25.50;;;;;;5030080;28;20357;-66
2023/09/10 10:34:22;;;;;;;;;;;44.60;25.50;;;;;;5029804;28;19948;-66
2023/09/10 10:36:50;;;;;;;;;;;44.80;25.40;;;;;;5030076;28;20338;-65
2023/09/10 10:39:17;;;;;;;;;;;44.80;25.00;;;;;;5029717;28;19923;-66
2023/09/10 10:41:47;;;;;;;;;;;44.70;24.80;;;;;;5030308;28;19951;-66
2023/09/10 10:44:20;;;;;;;;;;;44.60;24.60;;;;;;5029837;28;19967;-66
2023/09/10 10:46:47;;;;;;;;;;;44.40;24.90;;;;;;5029961;28;20866;-66
2023/09/10 10:49:13;;;;;;;;;;;44.40;24.80;;;;;;5033818;28;19920;-65
2023/09/10 10:51:43;;;;;;;;;;;44.40;25.00;;;;;;5033568;28;19917;-67
2023/09/10 10:54:08;;;;;;;;;;;44.50;24.70;;;;;;5033531;28;19913;-66
2023/09/10 10:56:34;;;;;;;;;;;44.60;24.50;;;;;;5033777;28;19924;-65
2023/09/10 10:59:00;;;;;;;;;;;44.60;24.50;;;;;;5033601;28;19924;-65
2023/09/10 11:01:27;;;;;;;;;;;44.60;24.60;;;;;;5033186;28;19913;-66
2023/09/10 11:03:52;;;;;;;;;;;44.70;24.40;;;;;;5033124;28;19917;-66
2023/09/10 11:06:18;;;;;;;;;;;44.50;24.20;;;;;;5033536;28;19917;-67
2023/09/10 11:08:46;;;;;;;;;;;44.30;24.40;;;;;;5033470;28;19924;-66
2023/09/10 11:11:30;;;;;;;;;;;44.20;24.60;;;;;;5032933;28;19909;-66
2023/09/10 11:14:02;;;;;;;;;;;44.20;24.70;;;;;;5033061;28;19923;-66
2023/09/10 11:16:28;;;;;;;;;;;44.20;23.90;;;;;;5033254;28;19909;-66
2023/09/10 11:18:54;;;;;;;;;;;43.90;23.80;;;;;;5032936;28;20384;-67
2023/09/10 11:21:19;;;;;;;;;;;43.80;24.20;;;;;;5033447;28;19971;-67
2023/09/10 11:23:50;;;;;;;;;;;43.70;23.80;;;;;;5033400;28;19925;-65
2023/09/10 11:26:16;;;;;;;;;;;43.30;23.90;;;;;;5033389;28;19920;-67
2023/09/10 11:28:46;;;;;;;;;;;43.20;24.40;;;;;;5031424;28;19921;-68
2023/09/10 11:31:26;;;;;;;;;;;43.20;24.50;;;;;;5033148;28;19910;-68
2023/09/10 11:33:56;;;;;;;;;;;43.10;24.50;;;;;;5032842;28;19928;-68
2023/09/10 11:36:22;;;;;;;;;;;43.00;24.60;;;;;;5033424;28;19971;-67
2023/09/10 11:38:48;;;;;;;;;;;43.00;24.60;;;;;;5033034;28;19921;-68
2023/09/10 11:41:13;;;;;;;;;;;43.10;24.60;;;;;;5032964;28;20440;-68
2023/09/10 11:43:39;;;;;;;;;;;43.00;24.70;;;;;;5032938;28;19964;-67
2023/09/10 11:46:06;;;;;;;;;;;43.00;24.90;;;;;;5032797;28;19909;-67
2023/09/10 11:48:31;;;;;;;;;;;43.00;24.90;;;;;;5032530;28;19922;-68
2023/09/10 11:50:58;;;;;;;;;;;43.00;25.00;;;;;;5032494;28;19917;-65
2023/09/10 11:53:24;;;;;;;;;;;42.80;25.00;;;;;;5032776;28;20331;-67
2023/09/10 11:55:49;;;;;;;;;;;42.70;25.10;;;;;;5032345;28;19913;-67
2023/09/10 11:58:16;;;;;;;;;;;42.60;25.20;;;;;;5031762;28;19940;-67
2023/09/10 12:00:42;;;;;;;;;;;42.30;25.10;;;;;;5031825;28;19955;-67
2023/09/10 12:03:07;;;;;;;;;;;42.20;24.80;;;;;;5032506;28;19913;-66
2023/09/10 12:05:34;;;;;;;;;;;42.00;24.80;;;;;;5032372;28;19913;-66
2023/09/10 12:08:01;;;;;;;;;;;41.80;24.90;;;;;;5032253;28;20019;-66
2023/09/10 12:10:27;;;;;;;;;;;41.80;24.90;;;;;;5032477;28;19932;-67
2023/09/10 12:12:53;;;;;;;;;;;41.50;25.10;;;;;;5032719;28;19913;-66
2023/09/10 12:15:18;;;;;;;;;;;41.40;25.40;;;;;;5032133;28;19912;-66
2023/09/10 12:17:44;;;;;;;;;;;41.30;25.70;;;;;;5030701;28;20419;-67
2023/09/10 12:20:10;;;;;;;;;;;41.30;25.80;;;;;;5032165;28;19998;-66
2023/09/10 12:22:35;;;;;;;;;;;41.20;25.90;;;;;;5031940;28;20416;-67
2023/09/10 12:25:01;;;;;;;;;;;41.10;26.20;;;;;;5032114;28;19963;-67
2023/09/10 12:27:26;;;;;;;;;;;40.90;26.00;;;;;;5031045;28;19917;-66
2023/09/10 12:29:53;;;;;;;;;;;40.80;26.40;;;;;;5011613;28;20447;-66
2023/09/10 12:32:19;;;;;;;;;;;40.80;26.40;;;;;;5011951;28;19957;-67
2023/09/10 12:34:45;;;;;;;;;;;40.70;26.40;;;;;;5011684;28;19910;-66
2023/09/10 12:37:15;;;;;;;;;;;40.70;26.50;;;;;;5024771;28;20348;-66
2023/09/10 12:39:41;;;;;;;;;;;40.60;26.50;;;;;;5010679;28;19917;-66
2023/09/10 12:42:07;;;;;;;;;;;40.40;26.50;;;;;;5010878;28;19917;-66
2023/09/10 12:44:36;;;;;;;;;;;40.30;26.30;;;;;;5011674;28;19914;-66
2023/09/10 12:47:02;;;;;;;;;;;40.20;26.60;;;;;;5022714;28;19917;-67
2023/09/10 12:49:28;;;;;;;;;;;40.10;26.80;;;;;;5028904;28;19952;-71
2023/09/10 12:51:53;;;;;;;;;;;40.10;26.60;;;;;;5031751;28;19968;-66
2023/09/10 12:54:19;;;;;;;;;;;40.00;26.80;;;;;;5029026;28;20015;-66
2023/09/10 12:56:48;;;;;;;;;;;40.00;26.90;;;;;;5026499;28;19913;-68
2023/09/10 12:59:13;;;;;;;;;;;40.00;27.00;;;;;;5021861;28;19921;-67
2023/09/10 13:01:39;;;;;;;;;;;39.90;26.80;;;;;;5028982;28;19919;-67
2023/09/10 13:04:04;;;;;;;;;;;39.70;26.70;;;;;;5031114;28;19913;-68
2023/09/10 13:06:30;;;;;;;;;;;39.40;27.00;;;;;;5031316;28;20360;-67
2023/09/10 13:08:56;;;;;;;;;;;39.20;27.40;;;;;;5030137;28;19917;-67
2023/09/10 13:11:21;;;;;;;;;;;39.10;27.60;;;;;;5029885;28;19921;-66
2023/09/10 13:13:47;;;;;;;;;;;39.10;27.60;;;;;;5028653;28;20391;-67
2023/09/10 13:16:12;;;;;;;;;;;39.00;28.00;;;;;;5029575;28;19913;-67
2023/09/10 13:18:38;;;;;;;;;;;39.10;27.90;;;;;;5029392;28;19924;-67
2023/09/10 13:21:03;;;;;;;;;;;39.00;27.90;;;;;;5029543;28;19913;-67
2023/09/10 13:23:29;;;;;;;;;;;38.90;27.60;;;;;;5029739;28;19971;-67
2023/09/10 13:25:54;;;;;;;;;;;38.70;28.00;;;;;;5030959;28;19909;-67
2023/09/10 13:28:19;;;;;;;;;;;38.70;28.20;;;;;;5030303;28;20428;-67
2023/09/10 13:30:45;;;;;;;;;;;38.60;28.20;;;;;;5030842;28;20426;-68
2023/09/10 13:33:10;;;;;;;;;;;38.40;28.50;;;;;;5029466;28;19963;-67
2023/09/10 13:35:38;;;;;;;;;;;38.30;28.60;;;;;;5030772;28;20036;-67
2023/09/10 13:38:03;;;;;;;;;;;38.30;28.70;;;;;;5028584;28;19971;-70
2023/09/10 13:40:29;;;;;;;;;;;38.00;28.90;;;;;;5030660;28;20311;-67
2023/09/10 13:42:54;;;;;;;;;;;37.80;29.20;;;;;;5030853;28;19960;-68
2023/09/10 13:45:20;;;;;;;;;;;37.50;29.40;;;;;;5030489;28;19936;-68
2023/09/10 13:47:45;;;;;;;;;;;37.30;29.50;;;;;;5030842;28;20215;-67
2023/09/10 13:50:11;;;;;;;;;;;37.10;29.70;;;;;;5030430;28;19996;-67
2023/09/10 13:52:40;;;;;;;;;;;36.90;29.80;;;;;;5029559;28;19928;-67
2023/09/10 13:55:07;;;;;;;;;;;36.60;30.00;;;;;;5027255;28;19972;-68
2023/09/10 13:57:32;;;;;;;;;;;36.40;30.30;;;;;;5030472;28;19922;-68
2023/09/10 13:59:57;;;;;;;;;;;36.30;30.70;;;;;;5029511;28;19921;-67
2023/09/10 14:02:23;;;;;;;;;;;36.00;30.90;;;;;;5027167;28;20004;-67
2023/09/10 14:04:48;;;;;;;;;;;35.80;30.90;;;;;;5030260;28;19920;-67
2023/09/10 14:07:14;;;;;;;;;;;35.80;30.90;;;;;;5027473;28;19917;-68
2023/09/10 14:09:40;;;;;;;;;;;35.70;31.10;;;;;;5191655;23;20400;-67